createdAt,value
2019-01-16T00:01:20.146Z,74.72
2019-01-16T00:03:53.140Z,74.38
2019-01-16T00:06:26.327Z,73.90
2019-01-16T00:08:59.397Z,74.01
2019-01-16T00:11:48.711Z,74.24
2019-01-16T00:14:21.779Z,74.29
2019-01-16T00:16:54.914Z,74.28
2019-01-16T00:19:30.644Z,74.25
2019-01-16T00:22:19.947Z,74.43
2019-01-16T00:24:53.007Z,74.51
2019-01-16T00:27:32.254Z,74.92
2019-01-16T00:30:09.389Z,75.10
2019-01-16T00:32:42.770Z,75.07
2019-01-16T00:35:15.842Z,75.19
2019-01-16T00:37:48.878Z,75.19
2019-01-16T00:40:38.369Z,75.69
2019-01-16T00:43:14.064Z,75.59
2019-01-16T00:46:02.884Z,75.77
2019-01-16T00:48:35.940Z,75.88
2019-01-16T00:51:18.165Z,75.57
2019-01-16T00:54:07.298Z,75.53
2019-01-16T00:56:58.112Z,75.58
2019-01-16T00:59:47.090Z,75.72
2019-01-16T01:02:36.741Z,75.60
2019-01-16T01:05:13.325Z,76.03
2019-01-16T01:07:46.298Z,75.25
2019-01-16T01:10:26.857Z,75.27
2019-01-16T01:13:08.770Z,75.51
2019-01-16T01:15:43.416Z,75.58
2019-01-16T01:18:32.687Z,75.17
2019-01-16T01:21:04.297Z,75.05
2019-01-16T01:23:37.263Z,75.11
2019-01-16T01:26:12.938Z,74.50
2019-01-16T01:28:45.912Z,74.94
2019-01-16T01:31:19.253Z,74.71
2019-01-16T01:33:55.052Z,74.57
2019-01-16T01:36:31.061Z,74.70
2019-01-16T01:39:16.067Z,74.37
2019-01-16T01:41:52.213Z,74.26
2019-01-16T01:44:36.068Z,74.03
2019-01-16T01:47:09.191Z,73.49
2019-01-16T01:49:57.518Z,72.85
2019-01-16T01:52:46.801Z,71.71
2019-01-16T01:55:31.797Z,71.85
2019-01-16T01:58:07.954Z,72.22
2019-01-16T02:00:49.876Z,72.53
2019-01-16T02:03:26.935Z,72.82
2019-01-16T02:06:02.589Z,73.00
2019-01-16T02:08:53.403Z,72.05
2019-01-16T02:11:27.402Z,71.13
2019-01-16T02:14:03.266Z,71.13
2019-01-16T02:16:34.320Z,71.21
2019-01-16T02:19:16.596Z,71.10
2019-01-16T02:21:55.424Z,71.26
2019-01-16T02:24:44.530Z,70.73
2019-01-16T02:27:35.333Z,70.39
2019-01-16T02:30:18.835Z,69.53
2019-01-16T02:32:49.997Z,69.09
2019-01-16T02:35:28.799Z,67.82
2019-01-16T02:38:19.963Z,67.89
2019-01-16T02:40:58.385Z,67.74
2019-01-16T02:43:31.279Z,68.00
2019-01-16T02:46:06.918Z,67.74
2019-01-16T02:48:45.667Z,67.25
2019-01-16T02:51:18.691Z,67.44
2019-01-16T02:54:07.859Z,67.82
2019-01-16T02:56:40.913Z,68.48
2019-01-16T02:59:13.887Z,68.23
2019-01-16T03:01:46.971Z,67.66
2019-01-16T03:04:22.456Z,66.62
2019-01-16T03:07:04.305Z,67.00
2019-01-16T03:09:43.686Z,65.53
2019-01-16T03:12:17.415Z,66.63
2019-01-16T03:14:50.435Z,67.18
2019-01-16T03:17:39.449Z,67.27
2019-01-16T03:20:15.245Z,67.82
2019-01-16T03:23:03.967Z,68.27
2019-01-16T03:25:55.063Z,68.47
2019-01-16T03:28:44.218Z,68.27
2019-01-16T03:31:23.384Z,67.58
2019-01-16T03:33:58.935Z,67.49
2019-01-16T03:36:34.695Z,67.13
2019-01-16T03:39:13.644Z,66.83
2019-01-16T03:41:55.156Z,66.60
2019-01-16T03:44:28.277Z,67.47
2019-01-16T03:47:07.341Z,67.17
2019-01-16T03:49:45.006Z,68.10
2019-01-16T03:52:20.549Z,67.78
2019-01-16T03:54:56.220Z,67.97
2019-01-16T03:57:27.330Z,68.43
2019-01-16T04:00:08.879Z,68.29
2019-01-16T04:02:41.909Z,68.03
2019-01-16T04:05:17.747Z,67.50
2019-01-16T04:07:53.521Z,67.52
2019-01-16T04:10:26.459Z,67.22
2019-01-16T04:13:02.205Z,66.89
2019-01-16T04:15:51.635Z,66.79
2019-01-16T04:18:40.614Z,66.45
2019-01-16T04:21:13.721Z,67.19
2019-01-16T04:23:56.653Z,67.14
2019-01-16T04:26:30.705Z,67.50
2019-01-16T04:29:12.882Z,67.27
2019-01-16T04:32:02.145Z,67.76
2019-01-16T04:34:44.125Z,67.56
2019-01-16T04:37:33.278Z,67.67
2019-01-16T04:40:26.411Z,67.92
2019-01-16T04:43:01.075Z,68.00
2019-01-16T04:45:45.683Z,67.31
2019-01-16T04:48:24.899Z,67.71
2019-01-16T04:51:13.985Z,67.81
2019-01-16T04:53:49.974Z,68.03
2019-01-16T04:56:35.473Z,68.24
2019-01-16T04:59:06.682Z,67.63
2019-01-16T05:01:40.891Z,67.14
2019-01-16T05:04:25.822Z,67.55
2019-01-16T05:07:02.633Z,67.35
2019-01-16T05:09:51.765Z,68.16
2019-01-16T05:12:36.585Z,68.39
2019-01-16T05:15:17.604Z,68.76
2019-01-16T05:18:00.752Z,68.60
2019-01-16T05:20:45.580Z,68.27
2019-01-16T05:23:19.532Z,68.35
2019-01-16T05:25:55.361Z,68.18
2019-01-16T05:28:40.239Z,68.51
2019-01-16T05:31:13.480Z,68.45
2019-01-16T05:34:02.507Z,68.95
2019-01-16T05:36:59.146Z,69.23
2019-01-16T05:39:34.171Z,69.01
2019-01-16T05:42:10.435Z,69.97
2019-01-16T05:44:49.986Z,69.38
2019-01-16T05:47:23.054Z,69.58
2019-01-16T05:50:01.932Z,69.74
2019-01-16T05:52:37.707Z,70.20
2019-01-16T05:55:27.379Z,69.36
2019-01-16T05:58:08.284Z,69.22
2019-01-16T06:00:47.345Z,69.44
2019-01-16T06:03:27.377Z,70.19
2019-01-16T06:06:00.555Z,70.19
2019-01-16T06:08:34.243Z,70.14
2019-01-16T06:11:07.606Z,69.96
2019-01-16T06:13:40.562Z,70.13
2019-01-16T06:16:19.328Z,70.50
2019-01-16T06:18:59.484Z,70.79
2019-01-16T06:21:41.391Z,70.24
2019-01-16T06:24:17.527Z,70.47
2019-01-16T06:26:56.611Z,70.58
2019-01-16T06:29:29.616Z,71.05
2019-01-16T06:32:02.700Z,71.07
2019-01-16T06:34:50.986Z,71.18
2019-01-16T06:37:34.112Z,71.31
2019-01-16T06:40:11.447Z,71.38
2019-01-16T06:42:44.585Z,71.57
2019-01-16T06:45:32.877Z,71.60
2019-01-16T06:48:22.093Z,71.69
2019-01-16T06:51:00.989Z,71.60
2019-01-16T06:53:36.948Z,71.93
2019-01-16T06:56:11.737Z,71.80
2019-01-16T06:58:53.837Z,71.64
2019-01-16T07:01:26.953Z,71.42
2019-01-16T07:04:00.102Z,71.72
2019-01-16T07:06:38.972Z,70.46
2019-01-16T07:09:16.825Z,69.91
2019-01-16T07:11:49.918Z,70.11
2019-01-16T07:14:31.765Z,70.43
2019-01-16T07:17:11.244Z,70.73
2019-01-16T07:19:47.271Z,71.03
2019-01-16T07:22:33.162Z,71.18
2019-01-16T07:25:15.448Z,71.68
2019-01-16T07:27:54.446Z,70.86
2019-01-16T07:30:34.937Z,70.77
2019-01-16T07:33:37.550Z,71.02
2019-01-16T07:36:14.089Z,71.29
2019-01-16T07:39:00.406Z,71.26
2019-01-16T07:41:43.151Z,71.04
2019-01-16T07:44:17.236Z,70.91
2019-01-16T07:46:48.565Z,70.72
2019-01-16T07:49:21.797Z,70.62
2019-01-16T07:51:58.020Z,70.51
2019-01-16T07:54:46.096Z,70.61
2019-01-16T07:57:22.091Z,70.40
2019-01-16T07:59:56.800Z,70.81
2019-01-16T08:02:38.896Z,70.78
2019-01-16T08:05:28.264Z,71.31
2019-01-16T08:08:01.347Z,71.75
2019-01-16T08:10:40.359Z,72.32
2019-01-16T08:13:29.345Z,72.36
2019-01-16T08:16:02.451Z,72.34
2019-01-16T08:18:50.549Z,73.27
2019-01-16T08:21:34.278Z,73.45
2019-01-16T08:24:07.472Z,73.75
2019-01-16T08:26:40.976Z,74.29
2019-01-16T08:29:20.063Z,74.50
2019-01-16T08:32:01.983Z,74.70
2019-01-16T08:34:37.767Z,74.78
2019-01-16T08:37:27.472Z,75.47
2019-01-16T08:40:00.537Z,75.49
2019-01-16T08:42:35.004Z,75.66
2019-01-16T08:45:11.816Z,75.58
2019-01-16T08:48:04.007Z,75.23
2019-01-16T08:50:48.611Z,75.38
2019-01-16T08:53:30.484Z,75.68
2019-01-16T08:56:10.236Z,75.60
2019-01-16T08:58:43.257Z,75.58
2019-01-16T09:01:23.378Z,75.44
2019-01-16T09:03:58.895Z,75.48
2019-01-16T09:06:43.816Z,75.58
2019-01-16T09:09:24.009Z,75.47
2019-01-16T09:11:59.640Z,75.64
2019-01-16T09:14:38.338Z,74.39
2019-01-16T09:17:11.353Z,74.44
2019-01-16T09:19:44.457Z,73.60
2019-01-16T09:22:33.977Z,74.46
2019-01-16T09:25:18.386Z,73.90
2019-01-16T09:27:51.913Z,73.85
2019-01-16T09:30:37.071Z,73.31
2019-01-16T09:33:12.843Z,72.67
2019-01-16T09:35:56.290Z,72.72
2019-01-16T09:38:54.826Z,72.63
2019-01-16T09:41:45.733Z,72.64
2019-01-16T09:44:18.717Z,72.76
2019-01-16T09:47:12.367Z,72.21
2019-01-16T09:49:51.234Z,72.37
2019-01-16T09:52:27.538Z,71.54
2019-01-16T09:55:10.440Z,71.29
2019-01-16T09:57:45.051Z,71.36
2019-01-16T10:00:36.250Z,72.04
2019-01-16T10:03:25.463Z,72.28
2019-01-16T10:06:07.708Z,71.03
2019-01-16T10:08:41.773Z,71.62
2019-01-16T10:11:20.858Z,70.43
2019-01-16T10:13:56.816Z,70.45
2019-01-16T10:16:32.977Z,70.54
2019-01-16T10:19:06.278Z,70.22
2019-01-16T10:21:42.068Z,69.98
2019-01-16T10:24:13.217Z,69.91
2019-01-16T10:26:56.072Z,69.94
2019-01-16T10:29:41.570Z,70.03
2019-01-16T10:32:14.615Z,69.82
2019-01-16T10:34:58.183Z,69.57
2019-01-16T10:37:34.276Z,69.88
2019-01-16T10:40:19.762Z,70.33
2019-01-16T10:42:52.748Z,68.90
2019-01-16T10:45:34.696Z,68.60
2019-01-16T10:48:12.176Z,68.40
2019-01-16T10:50:53.965Z,68.17
2019-01-16T10:53:32.675Z,68.30
2019-01-16T10:56:10.682Z,68.54
2019-01-16T10:58:46.320Z,68.98
2019-01-16T11:01:28.495Z,69.37
2019-01-16T11:04:16.887Z,68.11
2019-01-16T11:06:55.496Z,68.93
2019-01-16T11:09:28.492Z,67.92
2019-01-16T11:12:19.864Z,68.60
2019-01-16T11:15:09.271Z,69.65
2019-01-16T11:17:45.206Z,68.24
2019-01-16T11:20:18.204Z,68.72
2019-01-16T11:22:56.407Z,68.19
2019-01-16T11:25:45.692Z,68.46
2019-01-16T11:28:22.782Z,68.18
2019-01-16T11:31:08.105Z,67.05
2019-01-16T11:33:44.340Z,67.81
2019-01-16T11:36:33.644Z,66.72
2019-01-16T11:39:13.628Z,66.61
2019-01-16T11:42:01.839Z,67.05
2019-01-16T11:44:52.628Z,67.16
2019-01-16T11:47:41.976Z,66.59
2019-01-16T11:50:24.381Z,66.28
2019-01-16T11:53:03.171Z,68.17
2019-01-16T11:55:39.118Z,67.66
2019-01-16T11:58:17.505Z,66.28
2019-01-16T12:00:50.661Z,66.29
2019-01-16T12:03:23.578Z,67.81
2019-01-16T12:05:57.568Z,67.05
2019-01-16T12:08:46.042Z,67.84
2019-01-16T12:11:27.978Z,67.47
2019-01-16T12:14:17.253Z,65.30
2019-01-16T12:17:06.367Z,66.46
2019-01-16T12:19:39.419Z,65.81
2019-01-16T12:22:28.811Z,65.89
2019-01-16T12:25:04.697Z,66.09
2019-01-16T12:27:56.078Z,65.22
2019-01-16T12:30:42.315Z,65.08
2019-01-16T12:33:31.502Z,66.01
2019-01-16T12:36:10.483Z,66.06
2019-01-16T12:38:43.555Z,65.76
2019-01-16T12:41:22.471Z,66.14
2019-01-16T12:43:59.455Z,65.70
2019-01-16T12:46:45.693Z,66.47
2019-01-16T12:49:31.544Z,66.42
2019-01-16T12:52:39.474Z,66.10
2019-01-16T12:55:14.319Z,66.29
2019-01-16T12:58:02.269Z,66.41
2019-01-16T13:00:42.741Z,67.34
2019-01-16T13:03:15.832Z,67.75
2019-01-16T13:06:13.830Z,67.62
2019-01-16T13:08:59.008Z,67.76
2019-01-16T13:11:32.181Z,67.62
2019-01-16T13:14:05.318Z,67.49
2019-01-16T13:16:51.835Z,66.75
2019-01-16T13:19:25.750Z,67.07
2019-01-16T13:22:04.613Z,66.17
2019-01-16T13:24:37.509Z,66.83
2019-01-16T13:27:27.070Z,67.48
2019-01-16T13:30:00.234Z,67.06
2019-01-16T13:32:50.056Z,66.76
2019-01-16T13:35:28.957Z,66.61
2019-01-16T13:38:11.215Z,67.42
2019-01-16T13:40:44.307Z,67.93
2019-01-16T13:43:32.062Z,66.83
2019-01-16T13:46:20.799Z,67.47
2019-01-16T13:49:09.779Z,66.28
2019-01-16T13:51:46.345Z,66.27
2019-01-16T13:54:26.699Z,67.26
2019-01-16T13:57:05.282Z,67.06
2019-01-16T13:59:50.403Z,67.03
2019-01-16T14:02:23.068Z,66.95
2019-01-16T14:04:59.088Z,65.87
2019-01-16T14:07:37.779Z,65.92
2019-01-16T14:10:22.256Z,66.27
2019-01-16T14:13:01.322Z,66.98
2019-01-16T14:15:37.792Z,66.78
2019-01-16T14:18:11.045Z,66.49
2019-01-16T14:20:50.264Z,66.71
2019-01-16T14:23:23.378Z,65.71
2019-01-16T14:25:57.664Z,65.21
2019-01-16T14:28:30.655Z,65.08
2019-01-16T14:31:17.305Z,65.38
2019-01-16T14:34:06.303Z,66.01
2019-01-16T14:36:56.062Z,66.39
2019-01-16T14:39:36.256Z,65.81
2019-01-16T14:42:16.082Z,65.37
2019-01-16T14:44:53.128Z,65.60
2019-01-16T14:47:40.917Z,66.08
2019-01-16T14:50:29.418Z,66.20
2019-01-16T14:53:08.011Z,65.56
2019-01-16T14:55:48.730Z,66.19
2019-01-16T14:58:31.897Z,66.61
2019-01-16T15:01:08.964Z,66.48
2019-01-16T15:03:48.351Z,66.40
2019-01-16T15:06:21.425Z,66.58
2019-01-16T15:08:53.108Z,66.49
2019-01-16T15:11:26.995Z,66.35
2019-01-16T15:14:12.082Z,67.12
2019-01-16T15:16:49.196Z,66.63
2019-01-16T15:19:42.063Z,66.80
2019-01-16T15:22:14.223Z,67.18
2019-01-16T15:25:03.297Z,67.36
2019-01-16T15:27:36.262Z,67.48
2019-01-16T15:30:31.531Z,67.80
2019-01-16T15:33:10.657Z,68.17
2019-01-16T15:36:00.136Z,68.16
2019-01-16T15:38:35.975Z,68.47
2019-01-16T15:41:28.440Z,68.09
2019-01-16T15:44:17.341Z,68.26
2019-01-16T15:47:06.251Z,69.00
2019-01-16T15:49:42.869Z,69.21
2019-01-16T15:52:32.480Z,69.12
2019-01-16T15:55:08.745Z,69.22
2019-01-16T15:57:59.015Z,69.55
2019-01-16T16:00:37.234Z,69.96
2019-01-16T16:03:13.433Z,70.39
2019-01-16T16:06:04.991Z,70.32
2019-01-16T16:08:43.761Z,70.49
2019-01-16T16:11:16.683Z,70.71
2019-01-16T16:14:08.802Z,70.92
2019-01-16T16:16:41.892Z,71.15
2019-01-16T16:19:27.987Z,71.37
2019-01-16T16:22:10.051Z,71.55
2019-01-16T16:24:51.974Z,71.82
2019-01-16T16:27:28.550Z,72.11
2019-01-16T16:30:01.543Z,72.22
2019-01-16T16:32:42.216Z,72.46
2019-01-16T16:35:15.452Z,72.64
2019-01-16T16:37:57.130Z,72.50
2019-01-16T16:40:42.234Z,72.67
2019-01-16T16:43:15.391Z,72.78
2019-01-16T16:45:57.274Z,72.92
2019-01-16T16:48:30.383Z,72.95
2019-01-16T16:51:09.193Z,72.91
2019-01-16T16:53:58.417Z,72.79
2019-01-16T16:56:40.318Z,72.98
2019-01-16T16:59:32.512Z,72.88
2019-01-16T17:02:21.748Z,73.18
2019-01-16T17:05:00.556Z,73.09
2019-01-16T17:07:36.700Z,73.39
2019-01-16T17:10:13.586Z,73.26
2019-01-16T17:13:04.771Z,73.01
2019-01-16T17:15:38.876Z,73.32
2019-01-16T17:18:12.046Z,73.01
2019-01-16T17:20:45.179Z,73.05
2019-01-16T17:23:33.640Z,73.24
2019-01-16T17:26:08.426Z,73.30
2019-01-16T17:28:57.542Z,73.40
2019-01-16T17:31:30.580Z,73.19
2019-01-16T17:34:03.618Z,73.16
2019-01-16T17:36:36.754Z,72.95
2019-01-16T17:39:12.607Z,72.88
2019-01-16T17:41:51.470Z,72.69
2019-01-16T17:44:22.760Z,72.61
2019-01-16T17:46:53.947Z,72.16
2019-01-16T17:49:41.591Z,71.99
2019-01-16T17:52:20.824Z,71.42
2019-01-16T17:55:08.896Z,71.67
2019-01-16T17:57:42.055Z,71.74
2019-01-16T18:00:32.728Z,71.53
2019-01-16T18:03:09.661Z,71.45
2019-01-16T18:05:45.186Z,71.42
2019-01-16T18:08:19.934Z,71.39
2019-01-16T18:11:11.113Z,71.19
2019-01-16T18:13:46.914Z,71.33
2019-01-16T18:16:20.015Z,70.73
2019-01-16T18:18:53.156Z,70.63
2019-01-16T18:21:33.434Z,69.95
2019-01-16T18:24:09.834Z,70.09
2019-01-16T18:26:44.909Z,69.64
2019-01-16T18:29:20.911Z,69.70
2019-01-16T18:32:11.430Z,69.78
2019-01-16T18:34:45.519Z,69.66
2019-01-16T18:37:18.662Z,69.82
2019-01-16T18:39:51.965Z,70.04
2019-01-16T18:42:40.863Z,69.62
2019-01-16T18:45:43.364Z,69.65
2019-01-16T18:48:22.184Z,69.48
2019-01-16T18:51:01.201Z,69.63
2019-01-16T18:53:34.574Z,70.01
2019-01-16T18:56:23.107Z,70.42
2019-01-16T18:58:56.194Z,70.67
2019-01-16T19:01:45.853Z,70.15
2019-01-16T19:04:24.568Z,70.29
2019-01-16T19:07:01.887Z,69.10
2019-01-16T19:09:51.242Z,68.49
2019-01-16T19:12:24.298Z,67.77
2019-01-16T19:15:00.215Z,66.46
2019-01-16T19:17:51.597Z,65.19
2019-01-16T19:20:30.257Z,64.05
2019-01-16T19:23:03.410Z,63.60
2019-01-16T19:25:36.477Z,62.80
2019-01-16T19:28:18.303Z,62.72
2019-01-16T19:31:01.361Z,62.06
2019-01-16T19:33:34.322Z,62.38
2019-01-16T19:36:13.476Z,61.69
2019-01-16T19:39:01.793Z,60.87
2019-01-16T19:41:42.571Z,60.43
2019-01-16T19:44:30.729Z,60.67
2019-01-16T19:47:13.040Z,60.34
2019-01-16T19:49:48.988Z,60.74
2019-01-16T19:52:22.010Z,60.80
2019-01-16T19:55:12.100Z,59.48
2019-01-16T19:57:49.266Z,59.99
2019-01-16T20:00:38.539Z,60.56
2019-01-16T20:03:17.697Z,60.40
2019-01-16T20:05:55.013Z,60.50
2019-01-16T20:08:36.983Z,60.37
2019-01-16T20:11:26.239Z,60.44
2019-01-16T20:14:15.416Z,60.38
2019-01-16T20:16:48.403Z,59.52
2019-01-16T20:19:37.462Z,59.92
2019-01-16T20:22:26.716Z,59.96
2019-01-16T20:24:59.824Z,58.94
2019-01-16T20:27:35.757Z,58.40
2019-01-16T20:30:34.176Z,59.09
2019-01-16T20:33:10.190Z,59.21
2019-01-16T20:35:59.262Z,59.68
2019-01-16T20:38:48.420Z,59.41
2019-01-16T20:41:28.492Z,58.77
2019-01-16T20:44:04.552Z,58.84
2019-01-16T20:46:40.869Z,59.09
2019-01-16T20:49:20.262Z,59.50
2019-01-16T20:51:58.205Z,59.65
2019-01-16T20:54:43.846Z,59.52
2019-01-16T20:57:17.100Z,60.00
2019-01-16T20:59:59.260Z,59.59
2019-01-16T21:02:38.764Z,60.03
2019-01-16T21:05:11.957Z,60.46
2019-01-16T21:07:45.291Z,60.16
2019-01-16T21:10:31.056Z,60.06
2019-01-16T21:13:07.018Z,59.63
2019-01-16T21:15:40.220Z,59.42
2019-01-16T21:18:24.505Z,60.36
2019-01-16T21:20:58.037Z,60.11
2019-01-16T21:23:49.273Z,60.72
2019-01-16T21:26:31.221Z,60.32
2019-01-16T21:29:07.445Z,60.42
2019-01-16T21:31:56.956Z,60.87
2019-01-16T21:34:40.170Z,61.43
2019-01-16T21:37:22.371Z,62.51
2019-01-16T21:40:12.601Z,62.29
2019-01-16T21:42:54.604Z,62.36
2019-01-16T21:45:43.475Z,62.74
2019-01-16T21:48:17.701Z,63.01
2019-01-16T21:51:07.227Z,63.19
2019-01-16T21:53:55.067Z,63.62
2019-01-16T21:56:28.159Z,63.75
2019-01-16T21:59:05.347Z,64.35
2019-01-16T22:01:56.674Z,63.87
2019-01-16T22:07:36.053Z,65.08
2019-01-16T22:10:25.268Z,64.75
2019-01-16T22:13:08.965Z,65.20
2019-01-16T22:15:51.497Z,64.69
2019-01-16T22:18:28.875Z,65.02
2019-01-16T22:21:11.580Z,65.68
2019-01-16T22:24:00.809Z,65.88
2019-01-16T22:26:43.229Z,66.15
2019-01-16T22:29:22.474Z,66.45
2019-01-16T22:31:53.884Z,66.41
2019-01-16T22:34:33.253Z,66.20
2019-01-16T22:37:25.733Z,66.10
2019-01-16T22:40:19.588Z,66.27
2019-01-16T22:42:59.997Z,66.47
2019-01-16T22:45:37.636Z,66.71
2019-01-16T22:48:10.881Z,66.55
2019-01-16T22:50:45.186Z,66.96
2019-01-16T22:53:30.449Z,66.70
2019-01-16T22:56:13.782Z,66.21
2019-01-16T22:58:52.791Z,66.53
2019-01-16T23:01:26.089Z,66.48
2019-01-16T23:04:08.405Z,66.39
2019-01-16T23:06:44.510Z,66.74
2019-01-16T23:09:20.644Z,66.36
2019-01-16T23:11:56.619Z,66.59
2019-01-16T23:14:29.845Z,66.61
2019-01-16T23:17:03.637Z,66.99
2019-01-16T23:19:53.314Z,66.85
2019-01-16T23:22:28.330Z,66.83
2019-01-16T23:25:01.808Z,66.76
2019-01-16T23:27:39.360Z,66.68
2019-01-16T23:30:20.876Z,66.33
2019-01-16T23:33:00.826Z,66.98
2019-01-16T23:35:51.305Z,67.18
2019-01-16T23:38:30.064Z,65.92
2019-01-16T23:41:05.906Z,64.84
2019-01-16T23:43:47.852Z,64.96
2019-01-16T23:46:20.935Z,65.12
2019-01-16T23:48:56.912Z,64.62
2019-01-16T23:51:46.427Z,63.71
2019-01-16T23:54:34.592Z,63.44
2019-01-16T23:57:14.726Z,63.51
